Raritan, IL (61471)

11:03 AM CDT on July 25, 2014 (GMT -0500)
Burgus Computers (KILSTRON1) Elev 680 ft | 40.74 °N, 90.91 °W | Change Station

Current weather conditions updated 9 seconds ago

Rain
Rain
61.0 °F
Feels Like 61.0 °F
N
1.6
Wind Variable Wind from NNW
Gusts 3.5 mph

Today is forecast to be nearly the same temperature as yesterday.

Today
High -- | Low -- °F
--% Chance of Precip.
Yesterday
High -- | Low -- °F
Precip. -- in
5:53 AM 8:25 PM
Waning Crescent, 1% visible
Pressure 30.04 in
Visibility 5.0 miles
Clouds Mostly Cloudy 7000 ft
Overcast 9500 ft
Dew Point 59 °F
Humidity 93%
Rainfall 0.34 in
Snow Depth Not available.
UV 0.0 out of 12
Pollen 5.40 out of 12
Air Quality Not available.
Flu Activity Not available.
METAR KMQB 251555Z AUTO 20009KT 5SM VCTSRA BKN070 OVC095 16/16 A3004 RMK AO2 LTG DSNT S THRU W T01550155

More Conditions Fewer Conditions

Pressure 30.04 in
Visibility 5.0 miles
Clouds Mostly Cloudy 7000 ft
Overcast 9500 ft
Dew Point 59 °F
Humidity 93%
Rainfall 0.34 in
Snow Depth Not available.
UV 0.0 out of 12
Pollen 5.40 out of 12
Air Quality Not available.
Flu Activity Not available.
METAR KMQB 251555Z AUTO 20009KT 5SM VCTSRA BKN070 OVC095 16/16 A3004 RMK AO2 LTG DSNT S THRU W T01550155

More Conditions Fewer Conditions

10-Day Weather Forecast

Almanac

Astronomy

Jul. 25, 2014 Rise Set
Actual Time 5:53 AM CDT 8:25 PM CDT
Civil Twilight 5:22 AM CDT 8:56 PM CDT
Nautical Twilight 4:43 AM CDT 9:35 PM CDT
Astronomical Twilight 3:59 AM CDT 10:19 PM CDT
Moon 4:53 AM CDT 7:22 PM CDT
Length of Visible Light 15h 34m
Length of Day
14h 31m
Tomorrow will be 1m 49s shorter.
Waning Crescent, 1% of the Moon is Illuminated
Today
Waning Crescent
Jul 26
New
Aug 3
First Quarter
Aug 10
Full
Aug 17
Last Quarter

Today's Extremes

State Highs State Lows

Community

WunderPhotos

Upload Photos

1,737,361 photos uploaded!

Nearby

Snow Depth

Station Depth Elevation
No new snow has been reported.

Earthquake Activity

City Distance Mag. Time & Date
No recent earthquake activity has been reported nearby.
Minimum magnitude displayed is 2.5.

Coastal Water Temperatures

Place Temperature
No Stations Reporting

Nearby Weather Stations

Station Location Temp. Dew Point Humidity Wind Precip. Elev Updated Type
Burgus Computers, Stronghurst, IL 61.0 °F 59 °F 93% NNW  at  1.6 mph 0.07 in / hr 680 ft 11:03 AM CDT Rapid Fire
WIU Harry Mussatto Golf Course, Macomb, IL 61.0 °F 59 °F 93% SSW  at  8.0 mph 0.00 in / hr 712 ft 10:41 AM CDT Normal
Spirit Hollow GC, Burlington, IA 61.5 °F 53 °F 74% SW  at  4.0 mph 0.00 in / hr 650 ft 11:03 AM CDT Rapid Fire
Cameron, Cameron, IL 60.7 °F 60 °F 97% NNW  at  0.0 mph 0.14 in / hr 768 ft 10:54 AM CDT Normal
Chem Gro Inc., Adrian, IL 61.5 °F 58 °F 87% SSW  at  16.1 mph 0.30 in / hr 705 ft 11:03 AM CDT Rapid Fire
East of Bentley, Carthage, IL 60.8 °F 60 °F 96% South  at  2.0 mph 0.07 in / hr 650 ft 11:00 AM CDT Normal

Show More Stations Show Fewer Stations